<?xml version="1.0" encoding="UTF-8" standalone="no" ?>
<gpx xmlns="http://www.topografix.com/GPX/1/1" xmlns:xsi="http://www.w3.org/2001/XMLSchema-instance" xsi:schemaLocation="http://www.topografix.com/GPX/1/1 http://www.topografix.com/GPX/1/1/gpx.xsd" version="1.1" creator="VisuGPX - https://www.visugpx.com">
  <metadata>
    <name>Course à pied le matin</name>
  </metadata>
  <trk>
    <name><![CDATA[Course à pied le matin_1]]></name>
    <trkseg>
      <trkpt lat="48.7114" lon="7.16285">
        <ele>316.7</ele>
        <time>2023-08-20T06:20:44Z</time>
      </trkpt>
      <trkpt lat="48.71141" lon="7.16282">
        <ele>316.7</ele>
        <time>2023-08-20T06:20:45Z</time>
      </trkpt>
      <trkpt lat="48.71139" lon="7.16273">
        <ele>316.9</ele>
        <time>2023-08-20T06:20:48Z</time>
      </trkpt>
      <trkpt lat="48.71122" lon="7.16261">
        <ele>317.2</ele>
        <time>2023-08-20T06:20:55Z</time>
      </trkpt>
      <trkpt lat="48.71106" lon="7.16244">
        <ele>317.4</ele>
        <time>2023-08-20T06:21:02Z</time>
      </trkpt>
      <trkpt lat="48.71091" lon="7.16227">
        <ele>317.6</ele>
        <time>2023-08-20T06:21:09Z</time>
      </trkpt>
      <trkpt lat="48.71076" lon="7.16208">
        <ele>317.8</ele>
        <time>2023-08-20T06:21:17Z</time>
      </trkpt>
      <trkpt lat="48.7106" lon="7.16193">
        <ele>318</ele>
        <time>2023-08-20T06:21:24Z</time>
      </trkpt>
      <trkpt lat="48.71043" lon="7.16182">
        <ele>318.1</ele>
        <time>2023-08-20T06:21:31Z</time>
      </trkpt>
      <trkpt lat="48.71023" lon="7.16175">
        <ele>318.2</ele>
        <time>2023-08-20T06:21:39Z</time>
      </trkpt>
      <trkpt lat="48.71004" lon="7.16173">
        <ele>318.5</ele>
        <time>2023-08-20T06:21:46Z</time>
      </trkpt>
      <trkpt lat="48.70985" lon="7.16168">
        <ele>318.8</ele>
        <time>2023-08-20T06:21:53Z</time>
      </trkpt>
      <trkpt lat="48.70965" lon="7.16167">
        <ele>319.4</ele>
        <time>2023-08-20T06:22:00Z</time>
      </trkpt>
      <trkpt lat="48.70946" lon="7.16163">
        <ele>320.1</ele>
        <time>2023-08-20T06:22:07Z</time>
      </trkpt>
      <trkpt lat="48.70926" lon="7.16159">
        <ele>320.7</ele>
        <time>2023-08-20T06:22:15Z</time>
      </trkpt>
      <trkpt lat="48.70907" lon="7.16154">
        <ele>321.5</ele>
        <time>2023-08-20T06:22:23Z</time>
      </trkpt>
      <trkpt lat="48.70887" lon="7.16149">
        <ele>322.3</ele>
        <time>2023-08-20T06:22:31Z</time>
      </trkpt>
      <trkpt lat="48.70869" lon="7.16143">
        <ele>323.1</ele>
        <time>2023-08-20T06:22:38Z</time>
      </trkpt>
      <trkpt lat="48.70851" lon="7.16139">
        <ele>323.8</ele>
        <time>2023-08-20T06:22:45Z</time>
      </trkpt>
      <trkpt lat="48.70831" lon="7.16135">
        <ele>324.6</ele>
        <time>2023-08-20T06:22:53Z</time>
      </trkpt>
      <trkpt lat="48.70816" lon="7.16152">
        <ele>326.7</ele>
        <time>2023-08-20T06:23:02Z</time>
      </trkpt>
      <trkpt lat="48.70803" lon="7.16176">
        <ele>328.3</ele>
        <time>2023-08-20T06:23:11Z</time>
      </trkpt>
      <trkpt lat="48.70789" lon="7.16197">
        <ele>329.9</ele>
        <time>2023-08-20T06:23:20Z</time>
      </trkpt>
      <trkpt lat="48.70777" lon="7.16218">
        <ele>331.6</ele>
        <time>2023-08-20T06:23:28Z</time>
      </trkpt>
      <trkpt lat="48.70765" lon="7.16238">
        <ele>333.3</ele>
        <time>2023-08-20T06:23:36Z</time>
      </trkpt>
      <trkpt lat="48.70754" lon="7.16262">
        <ele>335.2</ele>
        <time>2023-08-20T06:23:45Z</time>
      </trkpt>
      <trkpt lat="48.70742" lon="7.16285">
        <ele>337.1</ele>
        <time>2023-08-20T06:23:54Z</time>
      </trkpt>
      <trkpt lat="48.70731" lon="7.16306">
        <ele>338.7</ele>
        <time>2023-08-20T06:24:02Z</time>
      </trkpt>
      <trkpt lat="48.70719" lon="7.16328">
        <ele>340.4</ele>
        <time>2023-08-20T06:24:10Z</time>
      </trkpt>
      <trkpt lat="48.70706" lon="7.1635">
        <ele>342.2</ele>
        <time>2023-08-20T06:24:18Z</time>
      </trkpt>
      <trkpt lat="48.70694" lon="7.16371">
        <ele>343.9</ele>
        <time>2023-08-20T06:24:25Z</time>
      </trkpt>
      <trkpt lat="48.70683" lon="7.16394">
        <ele>345.5</ele>
        <time>2023-08-20T06:24:32Z</time>
      </trkpt>
      <trkpt lat="48.70671" lon="7.16415">
        <ele>347</ele>
        <time>2023-08-20T06:24:39Z</time>
      </trkpt>
      <trkpt lat="48.70658" lon="7.16435">
        <ele>348.1</ele>
        <time>2023-08-20T06:24:46Z</time>
      </trkpt>
      <trkpt lat="48.70645" lon="7.16458">
        <ele>348.9</ele>
        <time>2023-08-20T06:24:53Z</time>
      </trkpt>
      <trkpt lat="48.70633" lon="7.16481">
        <ele>349.8</ele>
        <time>2023-08-20T06:25:00Z</time>
      </trkpt>
      <trkpt lat="48.7062" lon="7.16504">
        <ele>350.9</ele>
        <time>2023-08-20T06:25:07Z</time>
      </trkpt>
      <trkpt lat="48.70608" lon="7.16525">
        <ele>351.8</ele>
        <time>2023-08-20T06:25:14Z</time>
      </trkpt>
      <trkpt lat="48.70595" lon="7.16545">
        <ele>352.7</ele>
        <time>2023-08-20T06:25:21Z</time>
      </trkpt>
      <trkpt lat="48.70581" lon="7.16567">
        <ele>353.5</ele>
        <time>2023-08-20T06:25:28Z</time>
      </trkpt>
      <trkpt lat="48.70569" lon="7.16588">
        <ele>354.3</ele>
        <time>2023-08-20T06:25:35Z</time>
      </trkpt>
      <trkpt lat="48.70556" lon="7.16611">
        <ele>355.1</ele>
        <time>2023-08-20T06:25:42Z</time>
      </trkpt>
      <trkpt lat="48.70544" lon="7.16631">
        <ele>355.7</ele>
        <time>2023-08-20T06:25:49Z</time>
      </trkpt>
      <trkpt lat="48.70531" lon="7.16652">
        <ele>356.3</ele>
        <time>2023-08-20T06:25:56Z</time>
      </trkpt>
      <trkpt lat="48.70519" lon="7.16675">
        <ele>356.6</ele>
        <time>2023-08-20T06:26:03Z</time>
      </trkpt>
      <trkpt lat="48.70506" lon="7.167">
        <ele>356.4</ele>
        <time>2023-08-20T06:26:10Z</time>
      </trkpt>
      <trkpt lat="48.70495" lon="7.16721">
        <ele>356</ele>
        <time>2023-08-20T06:26:16Z</time>
      </trkpt>
      <trkpt lat="48.70481" lon="7.16744">
        <ele>355.4</ele>
        <time>2023-08-20T06:26:23Z</time>
      </trkpt>
      <trkpt lat="48.70468" lon="7.16764">
        <ele>354.8</ele>
        <time>2023-08-20T06:26:29Z</time>
      </trkpt>
      <trkpt lat="48.70454" lon="7.16783">
        <ele>354.2</ele>
        <time>2023-08-20T06:26:35Z</time>
      </trkpt>
      <trkpt lat="48.7044" lon="7.16802">
        <ele>353.8</ele>
        <time>2023-08-20T06:26:41Z</time>
      </trkpt>
      <trkpt lat="48.70426" lon="7.16822">
        <ele>353.7</ele>
        <time>2023-08-20T06:26:47Z</time>
      </trkpt>
      <trkpt lat="48.70412" lon="7.16841">
        <ele>353.7</ele>
        <time>2023-08-20T06:26:53Z</time>
      </trkpt>
      <trkpt lat="48.70398" lon="7.16858">
        <ele>353.7</ele>
        <time>2023-08-20T06:26:59Z</time>
      </trkpt>
      <trkpt lat="48.70381" lon="7.16871">
        <ele>353.9</ele>
        <time>2023-08-20T06:27:06Z</time>
      </trkpt>
      <trkpt lat="48.70362" lon="7.16881">
        <ele>354.5</ele>
        <time>2023-08-20T06:27:14Z</time>
      </trkpt>
      <trkpt lat="48.70344" lon="7.16891">
        <ele>355.6</ele>
        <time>2023-08-20T06:27:22Z</time>
      </trkpt>
      <trkpt lat="48.70326" lon="7.16901">
        <ele>357</ele>
        <time>2023-08-20T06:27:30Z</time>
      </trkpt>
      <trkpt lat="48.70308" lon="7.16912">
        <ele>358.7</ele>
        <time>2023-08-20T06:27:38Z</time>
      </trkpt>
      <trkpt lat="48.70291" lon="7.16925">
        <ele>360.3</ele>
        <time>2023-08-20T06:27:45Z</time>
      </trkpt>
      <trkpt lat="48.70275" lon="7.16939">
        <ele>361.8</ele>
        <time>2023-08-20T06:27:52Z</time>
      </trkpt>
      <trkpt lat="48.70257" lon="7.1695">
        <ele>363.2</ele>
        <time>2023-08-20T06:28:00Z</time>
      </trkpt>
      <trkpt lat="48.7024" lon="7.1696">
        <ele>364.3</ele>
        <time>2023-08-20T06:28:08Z</time>
      </trkpt>
      <trkpt lat="48.70223" lon="7.16973">
        <ele>365.3</ele>
        <time>2023-08-20T06:28:16Z</time>
      </trkpt>
      <trkpt lat="48.70205" lon="7.16988">
        <ele>366.3</ele>
        <time>2023-08-20T06:28:24Z</time>
      </trkpt>
      <trkpt lat="48.70187" lon="7.17002">
        <ele>367.6</ele>
        <time>2023-08-20T06:28:32Z</time>
      </trkpt>
      <trkpt lat="48.7017" lon="7.17015">
        <ele>369</ele>
        <time>2023-08-20T06:28:40Z</time>
      </trkpt>
      <trkpt lat="48.70153" lon="7.17027">
        <ele>370.5</ele>
        <time>2023-08-20T06:28:49Z</time>
      </trkpt>
      <trkpt lat="48.70139" lon="7.17048">
        <ele>372.3</ele>
        <time>2023-08-20T06:28:59Z</time>
      </trkpt>
      <trkpt lat="48.70128" lon="7.17071">
        <ele>373.3</ele>
        <time>2023-08-20T06:29:06Z</time>
      </trkpt>
      <trkpt lat="48.70113" lon="7.17091">
        <ele>374.8</ele>
        <time>2023-08-20T06:29:14Z</time>
      </trkpt>
      <trkpt lat="48.70097" lon="7.17108">
        <ele>376.4</ele>
        <time>2023-08-20T06:29:22Z</time>
      </trkpt>
      <trkpt lat="48.70081" lon="7.17123">
        <ele>377.8</ele>
        <time>2023-08-20T06:29:29Z</time>
      </trkpt>
      <trkpt lat="48.70066" lon="7.17139">
        <ele>379.3</ele>
        <time>2023-08-20T06:29:36Z</time>
      </trkpt>
      <trkpt lat="48.70048" lon="7.17155">
        <ele>381.1</ele>
        <time>2023-08-20T06:29:44Z</time>
      </trkpt>
      <trkpt lat="48.70031" lon="7.17171">
        <ele>382.9</ele>
        <time>2023-08-20T06:29:52Z</time>
      </trkpt>
      <trkpt lat="48.70014" lon="7.17188">
        <ele>384.7</ele>
        <time>2023-08-20T06:30:00Z</time>
      </trkpt>
      <trkpt lat="48.7" lon="7.17207">
        <ele>386.3</ele>
        <time>2023-08-20T06:30:07Z</time>
      </trkpt>
      <trkpt lat="48.69985" lon="7.17226">
        <ele>387.9</ele>
        <time>2023-08-20T06:30:14Z</time>
      </trkpt>
      <trkpt lat="48.6997" lon="7.17245">
        <ele>389.5</ele>
        <time>2023-08-20T06:30:21Z</time>
      </trkpt>
      <trkpt lat="48.69956" lon="7.17266">
        <ele>390.7</ele>
        <time>2023-08-20T06:30:28Z</time>
      </trkpt>
      <trkpt lat="48.69942" lon="7.17287">
        <ele>391.8</ele>
        <time>2023-08-20T06:30:35Z</time>
      </trkpt>
      <trkpt lat="48.69926" lon="7.17303">
        <ele>392.9</ele>
        <time>2023-08-20T06:30:43Z</time>
      </trkpt>
      <trkpt lat="48.69913" lon="7.17323">
        <ele>393.8</ele>
        <time>2023-08-20T06:30:50Z</time>
      </trkpt>
      <trkpt lat="48.699" lon="7.17344">
        <ele>394.8</ele>
        <time>2023-08-20T06:30:57Z</time>
      </trkpt>
      <trkpt lat="48.69886" lon="7.17366">
        <ele>396</ele>
        <time>2023-08-20T06:31:04Z</time>
      </trkpt>
      <trkpt lat="48.69872" lon="7.17384">
        <ele>397.1</ele>
        <time>2023-08-20T06:31:10Z</time>
      </trkpt>
      <trkpt lat="48.69856" lon="7.17397">
        <ele>398</ele>
        <time>2023-08-20T06:31:17Z</time>
      </trkpt>
      <trkpt lat="48.69854" lon="7.17395">
        <ele>398</ele>
        <time>2023-08-20T06:31:18Z</time>
      </trkpt>
      <trkpt lat="48.69842" lon="7.1737">
        <ele>398</ele>
        <time>2023-08-20T06:31:25Z</time>
      </trkpt>
      <trkpt lat="48.6983" lon="7.17347">
        <ele>398</ele>
        <time>2023-08-20T06:31:32Z</time>
      </trkpt>
      <trkpt lat="48.69818" lon="7.17324">
        <ele>397.8</ele>
        <time>2023-08-20T06:31:40Z</time>
      </trkpt>
      <trkpt lat="48.69808" lon="7.17299">
        <ele>397.5</ele>
        <time>2023-08-20T06:31:49Z</time>
      </trkpt>
      <trkpt lat="48.69799" lon="7.17274">
        <ele>397.1</ele>
        <time>2023-08-20T06:31:58Z</time>
      </trkpt>
      <trkpt lat="48.69793" lon="7.17248">
        <ele>396.3</ele>
        <time>2023-08-20T06:32:07Z</time>
      </trkpt>
      <trkpt lat="48.69784" lon="7.17222">
        <ele>395.6</ele>
        <time>2023-08-20T06:32:14Z</time>
      </trkpt>
      <trkpt lat="48.6978" lon="7.17195">
        <ele>394.9</ele>
        <time>2023-08-20T06:32:21Z</time>
      </trkpt>
      <trkpt lat="48.69777" lon="7.17168">
        <ele>394.2</ele>
        <time>2023-08-20T06:32:27Z</time>
      </trkpt>
      <trkpt lat="48.69772" lon="7.17137">
        <ele>393.4</ele>
        <time>2023-08-20T06:32:34Z</time>
      </trkpt>
      <trkpt lat="48.69767" lon="7.17108">
        <ele>392.7</ele>
        <time>2023-08-20T06:32:42Z</time>
      </trkpt>
      <trkpt lat="48.69761" lon="7.1708">
        <ele>392.1</ele>
        <time>2023-08-20T06:32:49Z</time>
      </trkpt>
      <trkpt lat="48.69751" lon="7.17052">
        <ele>391.3</ele>
        <time>2023-08-20T06:32:56Z</time>
      </trkpt>
      <trkpt lat="48.69742" lon="7.17024">
        <ele>390.6</ele>
        <time>2023-08-20T06:33:03Z</time>
      </trkpt>
      <trkpt lat="48.69733" lon="7.16996">
        <ele>390</ele>
        <time>2023-08-20T06:33:10Z</time>
      </trkpt>
      <trkpt lat="48.69725" lon="7.16971">
        <ele>389.5</ele>
        <time>2023-08-20T06:33:15Z</time>
      </trkpt>
      <trkpt lat="48.69714" lon="7.16944">
        <ele>389.2</ele>
        <time>2023-08-20T06:33:21Z</time>
      </trkpt>
      <trkpt lat="48.69699" lon="7.16923">
        <ele>389.3</ele>
        <time>2023-08-20T06:33:28Z</time>
      </trkpt>
      <trkpt lat="48.6968" lon="7.16913">
        <ele>389.6</ele>
        <time>2023-08-20T06:33:35Z</time>
      </trkpt>
      <trkpt lat="48.69661" lon="7.16904">
        <ele>389.8</ele>
        <time>2023-08-20T06:33:42Z</time>
      </trkpt>
      <trkpt lat="48.69645" lon="7.16889">
        <ele>390</ele>
        <time>2023-08-20T06:33:49Z</time>
      </trkpt>
      <trkpt lat="48.69627" lon="7.16875">
        <ele>390.4</ele>
        <time>2023-08-20T06:33:56Z</time>
      </trkpt>
      <trkpt lat="48.69611" lon="7.16861">
        <ele>390.9</ele>
        <time>2023-08-20T06:34:02Z</time>
      </trkpt>
      <trkpt lat="48.69595" lon="7.16845">
        <ele>392</ele>
        <time>2023-08-20T06:34:08Z</time>
      </trkpt>
      <trkpt lat="48.69579" lon="7.16827">
        <ele>393.3</ele>
        <time>2023-08-20T06:34:15Z</time>
      </trkpt>
      <trkpt lat="48.69563" lon="7.16809">
        <ele>394.7</ele>
        <time>2023-08-20T06:34:22Z</time>
      </trkpt>
      <trkpt lat="48.69547" lon="7.16792">
        <ele>395.1</ele>
        <time>2023-08-20T06:34:29Z</time>
      </trkpt>
      <trkpt lat="48.6953" lon="7.16776">
        <ele>394.2</ele>
        <time>2023-08-20T06:34:36Z</time>
      </trkpt>
      <trkpt lat="48.69515" lon="7.16757">
        <ele>392.7</ele>
        <time>2023-08-20T06:34:42Z</time>
      </trkpt>
      <trkpt lat="48.69502" lon="7.16736">
        <ele>392.1</ele>
        <time>2023-08-20T06:34:49Z</time>
      </trkpt>
      <trkpt lat="48.69489" lon="7.16719">
        <ele>391.3</ele>
        <time>2023-08-20T06:34:56Z</time>
      </trkpt>
      <trkpt lat="48.69481" lon="7.16743">
        <ele>388.5</ele>
        <time>2023-08-20T06:35:04Z</time>
      </trkpt>
      <trkpt lat="48.69482" lon="7.16771">
        <ele>388</ele>
        <time>2023-08-20T06:35:11Z</time>
      </trkpt>
      <trkpt lat="48.69485" lon="7.16799">
        <ele>388.2</ele>
        <time>2023-08-20T06:35:18Z</time>
      </trkpt>
      <trkpt lat="48.69486" lon="7.16827">
        <ele>388.3</ele>
        <time>2023-08-20T06:35:25Z</time>
      </trkpt>
      <trkpt lat="48.69476" lon="7.16853">
        <ele>388.1</ele>
        <time>2023-08-20T06:35:33Z</time>
      </trkpt>
      <trkpt lat="48.69467" lon="7.16878">
        <ele>386.6</ele>
        <time>2023-08-20T06:35:41Z</time>
      </trkpt>
      <trkpt lat="48.69463" lon="7.16904">
        <ele>386.2</ele>
        <time>2023-08-20T06:35:50Z</time>
      </trkpt>
      <trkpt lat="48.69465" lon="7.16932">
        <ele>387.4</ele>
        <time>2023-08-20T06:35:59Z</time>
      </trkpt>
      <trkpt lat="48.69467" lon="7.16961">
        <ele>387.8</ele>
        <time>2023-08-20T06:36:06Z</time>
      </trkpt>
      <trkpt lat="48.69476" lon="7.16987">
        <ele>389.5</ele>
        <time>2023-08-20T06:36:13Z</time>
      </trkpt>
      <trkpt lat="48.69481" lon="7.17015">
        <ele>389.5</ele>
        <time>2023-08-20T06:36:21Z</time>
      </trkpt>
      <trkpt lat="48.69481" lon="7.17042">
        <ele>389.4</ele>
        <time>2023-08-20T06:36:30Z</time>
      </trkpt>
      <trkpt lat="48.6947" lon="7.17069">
        <ele>388</ele>
        <time>2023-08-20T06:36:37Z</time>
      </trkpt>
      <trkpt lat="48.69462" lon="7.17098">
        <ele>386.8</ele>
        <time>2023-08-20T06:36:46Z</time>
      </trkpt>
      <trkpt lat="48.69453" lon="7.17126">
        <ele>384.9</ele>
        <time>2023-08-20T06:36:54Z</time>
      </trkpt>
      <trkpt lat="48.6944" lon="7.17149">
        <ele>382.9</ele>
        <time>2023-08-20T06:37:01Z</time>
      </trkpt>
      <trkpt lat="48.69427" lon="7.17167">
        <ele>383</ele>
        <time>2023-08-20T06:37:07Z</time>
      </trkpt>
      <trkpt lat="48.69409" lon="7.17183">
        <ele>382.6</ele>
        <time>2023-08-20T06:37:16Z</time>
      </trkpt>
      <trkpt lat="48.69392" lon="7.17199">
        <ele>382.2</ele>
        <time>2023-08-20T06:37:25Z</time>
      </trkpt>
      <trkpt lat="48.69374" lon="7.1721">
        <ele>382</ele>
        <time>2023-08-20T06:37:34Z</time>
      </trkpt>
      <trkpt lat="48.69355" lon="7.17222">
        <ele>381.7</ele>
        <time>2023-08-20T06:37:42Z</time>
      </trkpt>
      <trkpt lat="48.6934" lon="7.17236">
        <ele>381.4</ele>
        <time>2023-08-20T06:37:49Z</time>
      </trkpt>
      <trkpt lat="48.69321" lon="7.17249">
        <ele>381.4</ele>
        <time>2023-08-20T06:37:58Z</time>
      </trkpt>
      <trkpt lat="48.69305" lon="7.17264">
        <ele>381.8</ele>
        <time>2023-08-20T06:38:06Z</time>
      </trkpt>
      <trkpt lat="48.69287" lon="7.17274">
        <ele>382.4</ele>
        <time>2023-08-20T06:38:14Z</time>
      </trkpt>
      <trkpt lat="48.69268" lon="7.17285">
        <ele>383</ele>
        <time>2023-08-20T06:38:20Z</time>
      </trkpt>
      <trkpt lat="48.69251" lon="7.17299">
        <ele>383.2</ele>
        <time>2023-08-20T06:38:27Z</time>
      </trkpt>
      <trkpt lat="48.69237" lon="7.17317">
        <ele>382.6</ele>
        <time>2023-08-20T06:38:35Z</time>
      </trkpt>
      <trkpt lat="48.69223" lon="7.17333">
        <ele>381.7</ele>
        <time>2023-08-20T06:38:42Z</time>
      </trkpt>
      <trkpt lat="48.69206" lon="7.17345">
        <ele>380.6</ele>
        <time>2023-08-20T06:38:50Z</time>
      </trkpt>
      <trkpt lat="48.69189" lon="7.17356">
        <ele>379.2</ele>
        <time>2023-08-20T06:38:57Z</time>
      </trkpt>
      <trkpt lat="48.69173" lon="7.17376">
        <ele>377.5</ele>
        <time>2023-08-20T06:39:03Z</time>
      </trkpt>
      <trkpt lat="48.6916" lon="7.17398">
        <ele>375.9</ele>
        <time>2023-08-20T06:39:10Z</time>
      </trkpt>
      <trkpt lat="48.69148" lon="7.17425">
        <ele>374.3</ele>
        <time>2023-08-20T06:39:16Z</time>
      </trkpt>
      <trkpt lat="48.69138" lon="7.17452">
        <ele>372.6</ele>
        <time>2023-08-20T06:39:23Z</time>
      </trkpt>
      <trkpt lat="48.69131" lon="7.17482">
        <ele>371.2</ele>
        <time>2023-08-20T06:39:31Z</time>
      </trkpt>
      <trkpt lat="48.69128" lon="7.17509">
        <ele>369.9</ele>
        <time>2023-08-20T06:39:38Z</time>
      </trkpt>
      <trkpt lat="48.69119" lon="7.17537">
        <ele>368.2</ele>
        <time>2023-08-20T06:39:46Z</time>
      </trkpt>
      <trkpt lat="48.69107" lon="7.17562">
        <ele>366.5</ele>
        <time>2023-08-20T06:39:53Z</time>
      </trkpt>
      <trkpt lat="48.69094" lon="7.17583">
        <ele>364.9</ele>
        <time>2023-08-20T06:40:01Z</time>
      </trkpt>
      <trkpt lat="48.69074" lon="7.17592">
        <ele>363.3</ele>
        <time>2023-08-20T06:40:10Z</time>
      </trkpt>
      <trkpt lat="48.69056" lon="7.176">
        <ele>361.9</ele>
        <time>2023-08-20T06:40:16Z</time>
      </trkpt>
      <trkpt lat="48.69037" lon="7.17608">
        <ele>360.4</ele>
        <time>2023-08-20T06:40:22Z</time>
      </trkpt>
      <trkpt lat="48.69018" lon="7.17614">
        <ele>358.8</ele>
        <time>2023-08-20T06:40:28Z</time>
      </trkpt>
      <trkpt lat="48.68999" lon="7.17625">
        <ele>357.1</ele>
        <time>2023-08-20T06:40:35Z</time>
      </trkpt>
      <trkpt lat="48.68984" lon="7.17641">
        <ele>355.5</ele>
        <time>2023-08-20T06:40:42Z</time>
      </trkpt>
      <trkpt lat="48.68969" lon="7.1766">
        <ele>354</ele>
        <time>2023-08-20T06:40:48Z</time>
      </trkpt>
      <trkpt lat="48.68954" lon="7.17683">
        <ele>352.7</ele>
        <time>2023-08-20T06:40:54Z</time>
      </trkpt>
      <trkpt lat="48.68941" lon="7.17705">
        <ele>352</ele>
        <time>2023-08-20T06:40:59Z</time>
      </trkpt>
      <trkpt lat="48.68929" lon="7.17729">
        <ele>351.6</ele>
        <time>2023-08-20T06:41:05Z</time>
      </trkpt>
      <trkpt lat="48.68915" lon="7.1775">
        <ele>351.4</ele>
        <time>2023-08-20T06:41:12Z</time>
      </trkpt>
      <trkpt lat="48.68897" lon="7.17765">
        <ele>351.2</ele>
        <time>2023-08-20T06:41:22Z</time>
      </trkpt>
      <trkpt lat="48.68882" lon="7.1778">
        <ele>351.2</ele>
        <time>2023-08-20T06:41:29Z</time>
      </trkpt>
      <trkpt lat="48.68861" lon="7.17791">
        <ele>351.5</ele>
        <time>2023-08-20T06:41:36Z</time>
      </trkpt>
      <trkpt lat="48.68843" lon="7.17801">
        <ele>351.8</ele>
        <time>2023-08-20T06:41:43Z</time>
      </trkpt>
      <trkpt lat="48.68825" lon="7.17816">
        <ele>352.2</ele>
        <time>2023-08-20T06:41:51Z</time>
      </trkpt>
      <trkpt lat="48.6881" lon="7.17832">
        <ele>352.7</ele>
        <time>2023-08-20T06:41:58Z</time>
      </trkpt>
      <trkpt lat="48.68795" lon="7.17849">
        <ele>353.5</ele>
        <time>2023-08-20T06:42:05Z</time>
      </trkpt>
      <trkpt lat="48.68782" lon="7.1787">
        <ele>354.6</ele>
        <time>2023-08-20T06:42:13Z</time>
      </trkpt>
      <trkpt lat="48.6877" lon="7.17894">
        <ele>355.6</ele>
        <time>2023-08-20T06:42:22Z</time>
      </trkpt>
      <trkpt lat="48.68761" lon="7.17917">
        <ele>356.6</ele>
        <time>2023-08-20T06:42:30Z</time>
      </trkpt>
      <trkpt lat="48.68759" lon="7.17946">
        <ele>357.7</ele>
        <time>2023-08-20T06:42:39Z</time>
      </trkpt>
      <trkpt lat="48.68763" lon="7.17974">
        <ele>358.6</ele>
        <time>2023-08-20T06:42:46Z</time>
      </trkpt>
      <trkpt lat="48.68765" lon="7.18001">
        <ele>359.4</ele>
        <time>2023-08-20T06:42:52Z</time>
      </trkpt>
      <trkpt lat="48.68766" lon="7.18029">
        <ele>360</ele>
        <time>2023-08-20T06:42:58Z</time>
      </trkpt>
      <trkpt lat="48.68766" lon="7.18057">
        <ele>360.8</ele>
        <time>2023-08-20T06:43:05Z</time>
      </trkpt>
      <trkpt lat="48.68769" lon="7.18086">
        <ele>361.7</ele>
        <time>2023-08-20T06:43:13Z</time>
      </trkpt>
      <trkpt lat="48.68765" lon="7.18115">
        <ele>362.5</ele>
        <time>2023-08-20T06:43:20Z</time>
      </trkpt>
      <trkpt lat="48.68765" lon="7.18145">
        <ele>363.2</ele>
        <time>2023-08-20T06:43:27Z</time>
      </trkpt>
      <trkpt lat="48.68766" lon="7.18173">
        <ele>364</ele>
        <time>2023-08-20T06:43:34Z</time>
      </trkpt>
      <trkpt lat="48.68774" lon="7.18198">
        <ele>365</ele>
        <time>2023-08-20T06:43:41Z</time>
      </trkpt>
      <trkpt lat="48.6878" lon="7.18226">
        <ele>366.2</ele>
        <time>2023-08-20T06:43:50Z</time>
      </trkpt>
      <trkpt lat="48.68783" lon="7.18255">
        <ele>367.4</ele>
        <time>2023-08-20T06:43:58Z</time>
      </trkpt>
      <trkpt lat="48.68783" lon="7.18283">
        <ele>368.3</ele>
        <time>2023-08-20T06:44:04Z</time>
      </trkpt>
      <trkpt lat="48.68783" lon="7.18311">
        <ele>369.2</ele>
        <time>2023-08-20T06:44:11Z</time>
      </trkpt>
      <trkpt lat="48.68784" lon="7.18341">
        <ele>370</ele>
        <time>2023-08-20T06:44:19Z</time>
      </trkpt>
      <trkpt lat="48.68788" lon="7.18368">
        <ele>370.6</ele>
        <time>2023-08-20T06:44:26Z</time>
      </trkpt>
      <trkpt lat="48.68793" lon="7.18395">
        <ele>371.3</ele>
        <time>2023-08-20T06:44:33Z</time>
      </trkpt>
      <trkpt lat="48.68801" lon="7.18421">
        <ele>372</ele>
        <time>2023-08-20T06:44:41Z</time>
      </trkpt>
      <trkpt lat="48.68807" lon="7.18451">
        <ele>372.9</ele>
        <time>2023-08-20T06:44:49Z</time>
      </trkpt>
      <trkpt lat="48.68812" lon="7.18481">
        <ele>373.8</ele>
        <time>2023-08-20T06:44:56Z</time>
      </trkpt>
      <trkpt lat="48.68816" lon="7.18511">
        <ele>374.7</ele>
        <time>2023-08-20T06:45:03Z</time>
      </trkpt>
      <trkpt lat="48.68821" lon="7.18539">
        <ele>375.2</ele>
        <time>2023-08-20T06:45:10Z</time>
      </trkpt>
      <trkpt lat="48.68827" lon="7.18567">
        <ele>375.3</ele>
        <time>2023-08-20T06:45:17Z</time>
      </trkpt>
      <trkpt lat="48.6884" lon="7.18589">
        <ele>375.1</ele>
        <time>2023-08-20T06:45:25Z</time>
      </trkpt>
      <trkpt lat="48.68854" lon="7.18609">
        <ele>374.7</ele>
        <time>2023-08-20T06:45:33Z</time>
      </trkpt>
      <trkpt lat="48.6887" lon="7.18625">
        <ele>374.2</ele>
        <time>2023-08-20T06:45:40Z</time>
      </trkpt>
      <trkpt lat="48.68883" lon="7.18643">
        <ele>373.7</ele>
        <time>2023-08-20T06:45:47Z</time>
      </trkpt>
      <trkpt lat="48.68888" lon="7.18672">
        <ele>372.9</ele>
        <time>2023-08-20T06:45:55Z</time>
      </trkpt>
      <trkpt lat="48.68894" lon="7.18699">
        <ele>372</ele>
        <time>2023-08-20T06:46:01Z</time>
      </trkpt>
      <trkpt lat="48.68898" lon="7.1873">
        <ele>371.1</ele>
        <time>2023-08-20T06:46:08Z</time>
      </trkpt>
      <trkpt lat="48.68894" lon="7.18759">
        <ele>370.6</ele>
        <time>2023-08-20T06:46:15Z</time>
      </trkpt>
      <trkpt lat="48.68891" lon="7.18789">
        <ele>370.3</ele>
        <time>2023-08-20T06:46:22Z</time>
      </trkpt>
      <trkpt lat="48.68884" lon="7.18816">
        <ele>370.3</ele>
        <time>2023-08-20T06:46:27Z</time>
      </trkpt>
      <trkpt lat="48.68875" lon="7.18842">
        <ele>370.6</ele>
        <time>2023-08-20T06:46:35Z</time>
      </trkpt>
      <trkpt lat="48.68874" lon="7.18872">
        <ele>370.9</ele>
        <time>2023-08-20T06:46:45Z</time>
      </trkpt>
      <trkpt lat="48.68873" lon="7.189">
        <ele>371.1</ele>
        <time>2023-08-20T06:46:54Z</time>
      </trkpt>
      <trkpt lat="48.68879" lon="7.18928">
        <ele>371.4</ele>
        <time>2023-08-20T06:47:02Z</time>
      </trkpt>
      <trkpt lat="48.68882" lon="7.18955">
        <ele>371.7</ele>
        <time>2023-08-20T06:47:09Z</time>
      </trkpt>
      <trkpt lat="48.68886" lon="7.18985">
        <ele>371.9</ele>
        <time>2023-08-20T06:47:16Z</time>
      </trkpt>
      <trkpt lat="48.68894" lon="7.19013">
        <ele>371.9</ele>
        <time>2023-08-20T06:47:24Z</time>
      </trkpt>
      <trkpt lat="48.68904" lon="7.19037">
        <ele>371.9</ele>
        <time>2023-08-20T06:47:32Z</time>
      </trkpt>
      <trkpt lat="48.68914" lon="7.19061">
        <ele>371.2</ele>
        <time>2023-08-20T06:47:39Z</time>
      </trkpt>
      <trkpt lat="48.68929" lon="7.19082">
        <ele>370.7</ele>
        <time>2023-08-20T06:47:47Z</time>
      </trkpt>
      <trkpt lat="48.68948" lon="7.19088">
        <ele>370.3</ele>
        <time>2023-08-20T06:47:55Z</time>
      </trkpt>
      <trkpt lat="48.68965" lon="7.19076">
        <ele>369.7</ele>
        <time>2023-08-20T06:48:02Z</time>
      </trkpt>
      <trkpt lat="48.6898" lon="7.1906">
        <ele>369.6</ele>
        <time>2023-08-20T06:48:08Z</time>
      </trkpt>
      <trkpt lat="48.68993" lon="7.19036">
        <ele>369.8</ele>
        <time>2023-08-20T06:48:15Z</time>
      </trkpt>
      <trkpt lat="48.69003" lon="7.19012">
        <ele>370</ele>
        <time>2023-08-20T06:48:22Z</time>
      </trkpt>
      <trkpt lat="48.69013" lon="7.18988">
        <ele>370.3</ele>
        <time>2023-08-20T06:48:29Z</time>
      </trkpt>
      <trkpt lat="48.69019" lon="7.1896">
        <ele>370.7</ele>
        <time>2023-08-20T06:48:37Z</time>
      </trkpt>
      <trkpt lat="48.6903" lon="7.18936">
        <ele>371.1</ele>
        <time>2023-08-20T06:48:45Z</time>
      </trkpt>
      <trkpt lat="48.69043" lon="7.18914">
        <ele>371.3</ele>
        <time>2023-08-20T06:48:54Z</time>
      </trkpt>
      <trkpt lat="48.69059" lon="7.18895">
        <ele>371.1</ele>
        <time>2023-08-20T06:49:03Z</time>
      </trkpt>
      <trkpt lat="48.69076" lon="7.18878">
        <ele>370.8</ele>
        <time>2023-08-20T06:49:12Z</time>
      </trkpt>
      <trkpt lat="48.69094" lon="7.18867">
        <ele>369.9</ele>
        <time>2023-08-20T06:49:18Z</time>
      </trkpt>
      <trkpt lat="48.69114" lon="7.18866">
        <ele>369.4</ele>
        <time>2023-08-20T06:49:25Z</time>
      </trkpt>
      <trkpt lat="48.69132" lon="7.18863">
        <ele>369.5</ele>
        <time>2023-08-20T06:49:32Z</time>
      </trkpt>
      <trkpt lat="48.6915" lon="7.18862">
        <ele>370.3</ele>
        <time>2023-08-20T06:49:40Z</time>
      </trkpt>
      <trkpt lat="48.69169" lon="7.18857">
        <ele>371.9</ele>
        <time>2023-08-20T06:49:49Z</time>
      </trkpt>
      <trkpt lat="48.69188" lon="7.18858">
        <ele>373.2</ele>
        <time>2023-08-20T06:49:58Z</time>
      </trkpt>
      <trkpt lat="48.69207" lon="7.18868">
        <ele>374.7</ele>
        <time>2023-08-20T06:50:05Z</time>
      </trkpt>
      <trkpt lat="48.69222" lon="7.18885">
        <ele>376</ele>
        <time>2023-08-20T06:50:15Z</time>
      </trkpt>
      <trkpt lat="48.69237" lon="7.18901">
        <ele>377.2</ele>
        <time>2023-08-20T06:50:23Z</time>
      </trkpt>
      <trkpt lat="48.69254" lon="7.18913">
        <ele>378.4</ele>
        <time>2023-08-20T06:50:30Z</time>
      </trkpt>
      <trkpt lat="48.6927" lon="7.18927">
        <ele>379.5</ele>
        <time>2023-08-20T06:50:39Z</time>
      </trkpt>
      <trkpt lat="48.69284" lon="7.18945">
        <ele>380.5</ele>
        <time>2023-08-20T06:50:49Z</time>
      </trkpt>
      <trkpt lat="48.69301" lon="7.1896">
        <ele>381.9</ele>
        <time>2023-08-20T06:50:57Z</time>
      </trkpt>
      <trkpt lat="48.69317" lon="7.18969">
        <ele>382.5</ele>
        <time>2023-08-20T06:51:06Z</time>
      </trkpt>
      <trkpt lat="48.6931" lon="7.18944">
        <ele>385.8</ele>
        <time>2023-08-20T06:51:27Z</time>
      </trkpt>
      <trkpt lat="48.69306" lon="7.18917">
        <ele>387.6</ele>
        <time>2023-08-20T06:51:39Z</time>
      </trkpt>
      <trkpt lat="48.69306" lon="7.18889">
        <ele>389.4</ele>
        <time>2023-08-20T06:51:50Z</time>
      </trkpt>
      <trkpt lat="48.69305" lon="7.1886">
        <ele>390.9</ele>
        <time>2023-08-20T06:51:58Z</time>
      </trkpt>
      <trkpt lat="48.693" lon="7.18831">
        <ele>392</ele>
        <time>2023-08-20T06:52:08Z</time>
      </trkpt>
      <trkpt lat="48.69295" lon="7.18802">
        <ele>394</ele>
        <time>2023-08-20T06:52:17Z</time>
      </trkpt>
      <trkpt lat="48.69292" lon="7.18775">
        <ele>395.4</ele>
        <time>2023-08-20T06:52:26Z</time>
      </trkpt>
      <trkpt lat="48.69285" lon="7.18747">
        <ele>396.2</ele>
        <time>2023-08-20T06:52:36Z</time>
      </trkpt>
      <trkpt lat="48.69271" lon="7.18725">
        <ele>398.9</ele>
        <time>2023-08-20T06:52:48Z</time>
      </trkpt>
      <trkpt lat="48.69256" lon="7.18704">
        <ele>402</ele>
        <time>2023-08-20T06:52:55Z</time>
      </trkpt>
      <trkpt lat="48.69242" lon="7.18684">
        <ele>405.2</ele>
        <time>2023-08-20T06:53:02Z</time>
      </trkpt>
      <trkpt lat="48.69229" lon="7.18664">
        <ele>408.1</ele>
        <time>2023-08-20T06:53:11Z</time>
      </trkpt>
      <trkpt lat="48.69216" lon="7.18643">
        <ele>409.4</ele>
        <time>2023-08-20T06:53:20Z</time>
      </trkpt>
      <trkpt lat="48.69203" lon="7.18622">
        <ele>409.1</ele>
        <time>2023-08-20T06:53:30Z</time>
      </trkpt>
      <trkpt lat="48.69192" lon="7.18601">
        <ele>408.1</ele>
        <time>2023-08-20T06:53:39Z</time>
      </trkpt>
      <trkpt lat="48.69186" lon="7.18574">
        <ele>406.6</ele>
        <time>2023-08-20T06:53:49Z</time>
      </trkpt>
      <trkpt lat="48.69181" lon="7.18547">
        <ele>406.5</ele>
        <time>2023-08-20T06:53:58Z</time>
      </trkpt>
      <trkpt lat="48.69175" lon="7.18535">
        <ele>407.7</ele>
        <time>2023-08-20T06:54:04Z</time>
      </trkpt>
      <trkpt lat="48.69156" lon="7.18528">
        <ele>410</ele>
        <time>2023-08-20T06:54:12Z</time>
      </trkpt>
      <trkpt lat="48.69145" lon="7.18523">
        <ele>411.5</ele>
        <time>2023-08-20T06:54:18Z</time>
      </trkpt>
      <trkpt lat="48.69145" lon="7.18519">
        <ele>411.5</ele>
        <time>2023-08-20T06:54:20Z</time>
      </trkpt>
      <trkpt lat="48.6915" lon="7.18492">
        <ele>411.4</ele>
        <time>2023-08-20T06:54:28Z</time>
      </trkpt>
      <trkpt lat="48.69151" lon="7.18462">
        <ele>411.2</ele>
        <time>2023-08-20T06:54:36Z</time>
      </trkpt>
      <trkpt lat="48.6915" lon="7.18433">
        <ele>411.1</ele>
        <time>2023-08-20T06:54:43Z</time>
      </trkpt>
      <trkpt lat="48.69153" lon="7.18405">
        <ele>411</ele>
        <time>2023-08-20T06:54:50Z</time>
      </trkpt>
      <trkpt lat="48.69156" lon="7.18376">
        <ele>410.8</ele>
        <time>2023-08-20T06:54:58Z</time>
      </trkpt>
      <trkpt lat="48.69157" lon="7.18346">
        <ele>410.7</ele>
        <time>2023-08-20T06:55:07Z</time>
      </trkpt>
      <trkpt lat="48.69163" lon="7.18319">
        <ele>410.5</ele>
        <time>2023-08-20T06:55:15Z</time>
      </trkpt>
      <trkpt lat="48.6917" lon="7.18292">
        <ele>410.6</ele>
        <time>2023-08-20T06:55:22Z</time>
      </trkpt>
      <trkpt lat="48.69175" lon="7.18264">
        <ele>411.1</ele>
        <time>2023-08-20T06:55:29Z</time>
      </trkpt>
      <trkpt lat="48.69179" lon="7.18236">
        <ele>411.6</ele>
        <time>2023-08-20T06:55:36Z</time>
      </trkpt>
      <trkpt lat="48.69184" lon="7.18208">
        <ele>412.3</ele>
        <time>2023-08-20T06:55:43Z</time>
      </trkpt>
      <trkpt lat="48.69189" lon="7.18181">
        <ele>412.7</ele>
        <time>2023-08-20T06:55:50Z</time>
      </trkpt>
      <trkpt lat="48.69196" lon="7.18155">
        <ele>412.9</ele>
        <time>2023-08-20T06:55:57Z</time>
      </trkpt>
      <trkpt lat="48.69205" lon="7.1813">
        <ele>413.1</ele>
        <time>2023-08-20T06:56:04Z</time>
      </trkpt>
      <trkpt lat="48.69216" lon="7.18108">
        <ele>413.1</ele>
        <time>2023-08-20T06:56:11Z</time>
      </trkpt>
      <trkpt lat="48.69228" lon="7.18083">
        <ele>413.2</ele>
        <time>2023-08-20T06:56:19Z</time>
      </trkpt>
      <trkpt lat="48.69239" lon="7.1806">
        <ele>413.1</ele>
        <time>2023-08-20T06:56:26Z</time>
      </trkpt>
      <trkpt lat="48.69252" lon="7.18036">
        <ele>412.8</ele>
        <time>2023-08-20T06:56:33Z</time>
      </trkpt>
      <trkpt lat="48.69266" lon="7.18012">
        <ele>412.5</ele>
        <time>2023-08-20T06:56:40Z</time>
      </trkpt>
      <trkpt lat="48.69278" lon="7.17992">
        <ele>412.2</ele>
        <time>2023-08-20T06:56:46Z</time>
      </trkpt>
      <trkpt lat="48.69291" lon="7.17972">
        <ele>411.8</ele>
        <time>2023-08-20T06:56:52Z</time>
      </trkpt>
      <trkpt lat="48.69304" lon="7.17951">
        <ele>411.2</ele>
        <time>2023-08-20T06:56:58Z</time>
      </trkpt>
      <trkpt lat="48.69317" lon="7.17932">
        <ele>410.4</ele>
        <time>2023-08-20T06:57:04Z</time>
      </trkpt>
      <trkpt lat="48.69327" lon="7.17907">
        <ele>410</ele>
        <time>2023-08-20T06:57:10Z</time>
      </trkpt>
      <trkpt lat="48.69339" lon="7.17885">
        <ele>409.1</ele>
        <time>2023-08-20T06:57:16Z</time>
      </trkpt>
      <trkpt lat="48.69348" lon="7.17861">
        <ele>408.3</ele>
        <time>2023-08-20T06:57:22Z</time>
      </trkpt>
      <trkpt lat="48.6936" lon="7.17837">
        <ele>407.5</ele>
        <time>2023-08-20T06:57:28Z</time>
      </trkpt>
      <trkpt lat="48.69373" lon="7.17815">
        <ele>406.8</ele>
        <time>2023-08-20T06:57:34Z</time>
      </trkpt>
      <trkpt lat="48.69383" lon="7.17788">
        <ele>406.3</ele>
        <time>2023-08-20T06:57:41Z</time>
      </trkpt>
      <trkpt lat="48.69393" lon="7.17762">
        <ele>405.8</ele>
        <time>2023-08-20T06:57:48Z</time>
      </trkpt>
      <trkpt lat="48.69404" lon="7.17736">
        <ele>405.3</ele>
        <time>2023-08-20T06:57:56Z</time>
      </trkpt>
      <trkpt lat="48.69413" lon="7.17707">
        <ele>404.9</ele>
        <time>2023-08-20T06:58:03Z</time>
      </trkpt>
      <trkpt lat="48.69424" lon="7.17685">
        <ele>404.7</ele>
        <time>2023-08-20T06:58:10Z</time>
      </trkpt>
      <trkpt lat="48.69439" lon="7.17671">
        <ele>404.4</ele>
        <time>2023-08-20T06:58:16Z</time>
      </trkpt>
      <trkpt lat="48.69455" lon="7.17656">
        <ele>404</ele>
        <time>2023-08-20T06:58:21Z</time>
      </trkpt>
      <trkpt lat="48.69472" lon="7.1764">
        <ele>403.4</ele>
        <time>2023-08-20T06:58:26Z</time>
      </trkpt>
      <trkpt lat="48.69487" lon="7.17621">
        <ele>403.4</ele>
        <time>2023-08-20T06:58:30Z</time>
      </trkpt>
      <trkpt lat="48.69502" lon="7.17599">
        <ele>403.3</ele>
        <time>2023-08-20T06:58:35Z</time>
      </trkpt>
      <trkpt lat="48.69517" lon="7.17581">
        <ele>403.3</ele>
        <time>2023-08-20T06:58:39Z</time>
      </trkpt>
      <trkpt lat="48.69531" lon="7.17562">
        <ele>403.6</ele>
        <time>2023-08-20T06:58:43Z</time>
      </trkpt>
      <trkpt lat="48.69548" lon="7.17543">
        <ele>403.8</ele>
        <time>2023-08-20T06:58:47Z</time>
      </trkpt>
      <trkpt lat="48.69564" lon="7.17526">
        <ele>403.5</ele>
        <time>2023-08-20T06:58:51Z</time>
      </trkpt>
      <trkpt lat="48.6958" lon="7.17509">
        <ele>403.1</ele>
        <time>2023-08-20T06:58:55Z</time>
      </trkpt>
      <trkpt lat="48.69596" lon="7.17491">
        <ele>402.4</ele>
        <time>2023-08-20T06:58:59Z</time>
      </trkpt>
      <trkpt lat="48.6961" lon="7.17472">
        <ele>401.6</ele>
        <time>2023-08-20T06:59:03Z</time>
      </trkpt>
      <trkpt lat="48.69618" lon="7.17463">
        <ele>401.3</ele>
        <time>2023-08-20T06:59:05Z</time>
      </trkpt>
      <trkpt lat="48.69637" lon="7.17446">
        <ele>400.6</ele>
        <time>2023-08-20T06:59:10Z</time>
      </trkpt>
      <trkpt lat="48.69657" lon="7.17434">
        <ele>400</ele>
        <time>2023-08-20T06:59:15Z</time>
      </trkpt>
      <trkpt lat="48.69676" lon="7.17416">
        <ele>399.6</ele>
        <time>2023-08-20T06:59:20Z</time>
      </trkpt>
      <trkpt lat="48.69693" lon="7.17398">
        <ele>399.3</ele>
        <time>2023-08-20T06:59:25Z</time>
      </trkpt>
      <trkpt lat="48.69708" lon="7.17383">
        <ele>399.2</ele>
        <time>2023-08-20T06:59:29Z</time>
      </trkpt>
      <trkpt lat="48.69725" lon="7.17369">
        <ele>399.1</ele>
        <time>2023-08-20T06:59:33Z</time>
      </trkpt>
      <trkpt lat="48.69744" lon="7.17352">
        <ele>399.1</ele>
        <time>2023-08-20T06:59:38Z</time>
      </trkpt>
      <trkpt lat="48.69748" lon="7.1735">
        <ele>399.1</ele>
        <time>2023-08-20T06:59:39Z</time>
      </trkpt>
      <trkpt lat="48.69767" lon="7.17341">
        <ele>399</ele>
        <time>2023-08-20T06:59:44Z</time>
      </trkpt>
      <trkpt lat="48.6977" lon="7.1734">
        <ele>399</ele>
        <time>2023-08-20T06:59:45Z</time>
      </trkpt>
      <trkpt lat="48.69788" lon="7.17335">
        <ele>398.9</ele>
        <time>2023-08-20T06:59:51Z</time>
      </trkpt>
      <trkpt lat="48.69808" lon="7.1733">
        <ele>398.9</ele>
        <time>2023-08-20T06:59:57Z</time>
      </trkpt>
      <trkpt lat="48.69817" lon="7.17333">
        <ele>398.8</ele>
        <time>2023-08-20T07:00:00Z</time>
      </trkpt>
      <trkpt lat="48.6982" lon="7.17337">
        <ele>399.2</ele>
        <time>2023-08-20T07:00:02Z</time>
      </trkpt>
      <trkpt lat="48.69824" lon="7.17351">
        <ele>399.7</ele>
        <time>2023-08-20T07:01:21Z</time>
      </trkpt>
      <trkpt lat="48.69841" lon="7.17338">
        <ele>399.3</ele>
        <time>2023-08-20T07:01:25Z</time>
      </trkpt>
      <trkpt lat="48.69859" lon="7.17328">
        <ele>398.3</ele>
        <time>2023-08-20T07:01:31Z</time>
      </trkpt>
      <trkpt lat="48.69877" lon="7.1732">
        <ele>396.7</ele>
        <time>2023-08-20T07:01:37Z</time>
      </trkpt>
      <trkpt lat="48.69896" lon="7.17308">
        <ele>394.4</ele>
        <time>2023-08-20T07:01:44Z</time>
      </trkpt>
      <trkpt lat="48.69915" lon="7.17305">
        <ele>393.5</ele>
        <time>2023-08-20T07:01:51Z</time>
      </trkpt>
      <trkpt lat="48.69917" lon="7.17304">
        <ele>393.4</ele>
        <time>2023-08-20T07:01:52Z</time>
      </trkpt>
      <trkpt lat="48.69932" lon="7.17285">
        <ele>392.4</ele>
        <time>2023-08-20T07:01:59Z</time>
      </trkpt>
      <trkpt lat="48.69947" lon="7.17268">
        <ele>391.3</ele>
        <time>2023-08-20T07:02:05Z</time>
      </trkpt>
      <trkpt lat="48.69961" lon="7.17246">
        <ele>390.1</ele>
        <time>2023-08-20T07:02:12Z</time>
      </trkpt>
      <trkpt lat="48.69974" lon="7.17227">
        <ele>388.8</ele>
        <time>2023-08-20T07:02:18Z</time>
      </trkpt>
      <trkpt lat="48.6999" lon="7.17207">
        <ele>387.1</ele>
        <time>2023-08-20T07:02:24Z</time>
      </trkpt>
      <trkpt lat="48.70007" lon="7.17186">
        <ele>385.2</ele>
        <time>2023-08-20T07:02:30Z</time>
      </trkpt>
      <trkpt lat="48.70022" lon="7.17171">
        <ele>383.7</ele>
        <time>2023-08-20T07:02:35Z</time>
      </trkpt>
      <trkpt lat="48.70039" lon="7.17154">
        <ele>381.8</ele>
        <time>2023-08-20T07:02:41Z</time>
      </trkpt>
      <trkpt lat="48.70057" lon="7.17136">
        <ele>379.9</ele>
        <time>2023-08-20T07:02:47Z</time>
      </trkpt>
      <trkpt lat="48.70074" lon="7.17118">
        <ele>378.1</ele>
        <time>2023-08-20T07:02:53Z</time>
      </trkpt>
      <trkpt lat="48.70091" lon="7.171">
        <ele>376.5</ele>
        <time>2023-08-20T07:02:59Z</time>
      </trkpt>
      <trkpt lat="48.70107" lon="7.17084">
        <ele>375.1</ele>
        <time>2023-08-20T07:03:04Z</time>
      </trkpt>
      <trkpt lat="48.70121" lon="7.17066">
        <ele>373.6</ele>
        <time>2023-08-20T07:03:09Z</time>
      </trkpt>
      <trkpt lat="48.70134" lon="7.17041">
        <ele>372.7</ele>
        <time>2023-08-20T07:03:15Z</time>
      </trkpt>
      <trkpt lat="48.70148" lon="7.17024">
        <ele>371</ele>
        <time>2023-08-20T07:03:21Z</time>
      </trkpt>
      <trkpt lat="48.70165" lon="7.17011">
        <ele>369.4</ele>
        <time>2023-08-20T07:03:27Z</time>
      </trkpt>
      <trkpt lat="48.70183" lon="7.16995">
        <ele>367.7</ele>
        <time>2023-08-20T07:03:33Z</time>
      </trkpt>
      <trkpt lat="48.70199" lon="7.16982">
        <ele>366.5</ele>
        <time>2023-08-20T07:03:38Z</time>
      </trkpt>
      <trkpt lat="48.70219" lon="7.16967">
        <ele>365.3</ele>
        <time>2023-08-20T07:03:44Z</time>
      </trkpt>
      <trkpt lat="48.70237" lon="7.16953">
        <ele>364.2</ele>
        <time>2023-08-20T07:03:50Z</time>
      </trkpt>
      <trkpt lat="48.70256" lon="7.16941">
        <ele>362.9</ele>
        <time>2023-08-20T07:03:56Z</time>
      </trkpt>
      <trkpt lat="48.70275" lon="7.16928">
        <ele>361.3</ele>
        <time>2023-08-20T07:04:02Z</time>
      </trkpt>
      <trkpt lat="48.70291" lon="7.16917">
        <ele>359.8</ele>
        <time>2023-08-20T07:04:07Z</time>
      </trkpt>
      <trkpt lat="48.70308" lon="7.16905">
        <ele>358.2</ele>
        <time>2023-08-20T07:04:12Z</time>
      </trkpt>
      <trkpt lat="48.70326" lon="7.16894">
        <ele>356.5</ele>
        <time>2023-08-20T07:04:17Z</time>
      </trkpt>
      <trkpt lat="48.70343" lon="7.16884">
        <ele>355.2</ele>
        <time>2023-08-20T07:04:22Z</time>
      </trkpt>
      <trkpt lat="48.7036" lon="7.16872">
        <ele>354.3</ele>
        <time>2023-08-20T07:04:27Z</time>
      </trkpt>
      <trkpt lat="48.70377" lon="7.16859">
        <ele>353.8</ele>
        <time>2023-08-20T07:04:32Z</time>
      </trkpt>
      <trkpt lat="48.70396" lon="7.16846">
        <ele>353.6</ele>
        <time>2023-08-20T07:04:38Z</time>
      </trkpt>
      <trkpt lat="48.70411" lon="7.1683">
        <ele>353.7</ele>
        <time>2023-08-20T07:04:43Z</time>
      </trkpt>
      <trkpt lat="48.70426" lon="7.16808">
        <ele>353.7</ele>
        <time>2023-08-20T07:04:49Z</time>
      </trkpt>
      <trkpt lat="48.70441" lon="7.16786">
        <ele>354</ele>
        <time>2023-08-20T07:04:55Z</time>
      </trkpt>
      <trkpt lat="48.70454" lon="7.16765">
        <ele>354.4</ele>
        <time>2023-08-20T07:05:01Z</time>
      </trkpt>
      <trkpt lat="48.70467" lon="7.16746">
        <ele>355</ele>
        <time>2023-08-20T07:05:07Z</time>
      </trkpt>
      <trkpt lat="48.7048" lon="7.16726">
        <ele>355.7</ele>
        <time>2023-08-20T07:05:13Z</time>
      </trkpt>
      <trkpt lat="48.70491" lon="7.16703">
        <ele>356.2</ele>
        <time>2023-08-20T07:05:19Z</time>
      </trkpt>
      <trkpt lat="48.70504" lon="7.16679">
        <ele>356.5</ele>
        <time>2023-08-20T07:05:25Z</time>
      </trkpt>
      <trkpt lat="48.70517" lon="7.16654">
        <ele>356.5</ele>
        <time>2023-08-20T07:05:31Z</time>
      </trkpt>
      <trkpt lat="48.70531" lon="7.16631">
        <ele>356</ele>
        <time>2023-08-20T07:05:37Z</time>
      </trkpt>
      <trkpt lat="48.70545" lon="7.16609">
        <ele>355.4</ele>
        <time>2023-08-20T07:05:43Z</time>
      </trkpt>
      <trkpt lat="48.70558" lon="7.16586">
        <ele>354.6</ele>
        <time>2023-08-20T07:05:49Z</time>
      </trkpt>
      <trkpt lat="48.70572" lon="7.16564">
        <ele>353.7</ele>
        <time>2023-08-20T07:05:55Z</time>
      </trkpt>
      <trkpt lat="48.70586" lon="7.16541">
        <ele>352.9</ele>
        <time>2023-08-20T07:06:01Z</time>
      </trkpt>
      <trkpt lat="48.706" lon="7.16518">
        <ele>351.9</ele>
        <time>2023-08-20T07:06:07Z</time>
      </trkpt>
      <trkpt lat="48.70613" lon="7.16494">
        <ele>350.9</ele>
        <time>2023-08-20T07:06:13Z</time>
      </trkpt>
      <trkpt lat="48.70626" lon="7.16469">
        <ele>349.7</ele>
        <time>2023-08-20T07:06:19Z</time>
      </trkpt>
      <trkpt lat="48.70637" lon="7.16448">
        <ele>348.9</ele>
        <time>2023-08-20T07:06:24Z</time>
      </trkpt>
      <trkpt lat="48.70652" lon="7.16423">
        <ele>348</ele>
        <time>2023-08-20T07:06:30Z</time>
      </trkpt>
      <trkpt lat="48.70665" lon="7.16398">
        <ele>346.6</ele>
        <time>2023-08-20T07:06:36Z</time>
      </trkpt>
      <trkpt lat="48.70677" lon="7.16377">
        <ele>345</ele>
        <time>2023-08-20T07:06:41Z</time>
      </trkpt>
      <trkpt lat="48.70692" lon="7.16354">
        <ele>343.2</ele>
        <time>2023-08-20T07:06:47Z</time>
      </trkpt>
      <trkpt lat="48.70707" lon="7.16331">
        <ele>341.2</ele>
        <time>2023-08-20T07:06:53Z</time>
      </trkpt>
      <trkpt lat="48.70719" lon="7.16311">
        <ele>339.6</ele>
        <time>2023-08-20T07:06:58Z</time>
      </trkpt>
      <trkpt lat="48.70731" lon="7.16291">
        <ele>338</ele>
        <time>2023-08-20T07:07:03Z</time>
      </trkpt>
      <trkpt lat="48.70745" lon="7.16268">
        <ele>336</ele>
        <time>2023-08-20T07:07:09Z</time>
      </trkpt>
      <trkpt lat="48.70759" lon="7.16246">
        <ele>334</ele>
        <time>2023-08-20T07:07:15Z</time>
      </trkpt>
      <trkpt lat="48.70774" lon="7.16223">
        <ele>332</ele>
        <time>2023-08-20T07:07:21Z</time>
      </trkpt>
      <trkpt lat="48.70786" lon="7.16202">
        <ele>330.4</ele>
        <time>2023-08-20T07:07:26Z</time>
      </trkpt>
      <trkpt lat="48.70798" lon="7.16177">
        <ele>328.7</ele>
        <time>2023-08-20T07:07:32Z</time>
      </trkpt>
      <trkpt lat="48.70811" lon="7.16156">
        <ele>327</ele>
        <time>2023-08-20T07:07:38Z</time>
      </trkpt>
      <trkpt lat="48.70825" lon="7.16131">
        <ele>325.2</ele>
        <time>2023-08-20T07:07:44Z</time>
      </trkpt>
      <trkpt lat="48.70846" lon="7.16125">
        <ele>324</ele>
        <time>2023-08-20T07:07:50Z</time>
      </trkpt>
      <trkpt lat="48.70864" lon="7.1613">
        <ele>323.3</ele>
        <time>2023-08-20T07:07:55Z</time>
      </trkpt>
      <trkpt lat="48.70883" lon="7.16134">
        <ele>322.5</ele>
        <time>2023-08-20T07:08:00Z</time>
      </trkpt>
      <trkpt lat="48.70903" lon="7.16138">
        <ele>321.7</ele>
        <time>2023-08-20T07:08:05Z</time>
      </trkpt>
      <trkpt lat="48.70923" lon="7.16143">
        <ele>320.9</ele>
        <time>2023-08-20T07:08:10Z</time>
      </trkpt>
      <trkpt lat="48.70942" lon="7.16147">
        <ele>320.2</ele>
        <time>2023-08-20T07:08:15Z</time>
      </trkpt>
      <trkpt lat="48.70962" lon="7.16153">
        <ele>319.5</ele>
        <time>2023-08-20T07:08:21Z</time>
      </trkpt>
      <trkpt lat="48.70982" lon="7.16156">
        <ele>319</ele>
        <time>2023-08-20T07:08:27Z</time>
      </trkpt>
      <trkpt lat="48.71003" lon="7.16162">
        <ele>318.5</ele>
        <time>2023-08-20T07:08:33Z</time>
      </trkpt>
      <trkpt lat="48.71024" lon="7.16167">
        <ele>318.2</ele>
        <time>2023-08-20T07:08:39Z</time>
      </trkpt>
      <trkpt lat="48.71044" lon="7.16172">
        <ele>318.1</ele>
        <time>2023-08-20T07:08:45Z</time>
      </trkpt>
      <trkpt lat="48.71065" lon="7.16178">
        <ele>318</ele>
        <time>2023-08-20T07:08:50Z</time>
      </trkpt>
      <trkpt lat="48.71083" lon="7.16191">
        <ele>317.8</ele>
        <time>2023-08-20T07:08:55Z</time>
      </trkpt>
      <trkpt lat="48.71099" lon="7.16212">
        <ele>317.6</ele>
        <time>2023-08-20T07:09:01Z</time>
      </trkpt>
      <trkpt lat="48.71114" lon="7.16235">
        <ele>317.4</ele>
        <time>2023-08-20T07:09:07Z</time>
      </trkpt>
      <trkpt lat="48.71127" lon="7.16257">
        <ele>317.3</ele>
        <time>2023-08-20T07:09:13Z</time>
      </trkpt>
      <trkpt lat="48.71144" lon="7.16272">
        <ele>317.1</ele>
        <time>2023-08-20T07:09:19Z</time>
      </trkpt>
      <trkpt lat="48.71147" lon="7.163">
        <ele>316.8</ele>
        <time>2023-08-20T07:09:25Z</time>
      </trkpt>
      <trkpt lat="48.71146" lon="7.1631">
        <ele>316.7</ele>
        <time>2023-08-20T07:09:28Z</time>
      </trkpt>
    </trkseg>
  </trk>
</gpx>